sensor_id;sensor_type;location;lat;lon;timestamp;P1;durP1;ratioP1;P2;durP2;ratioP2
4595;SDS011;2310;49.978;8.742;2023-02-05T00:00:33;14.00;;;8.80;;
4595;SDS011;2310;49.978;8.742;2023-02-05T00:04:34;11.03;;;7.60;;
4595;SDS011;2310;49.978;8.742;2023-02-05T00:08:36;11.07;;;8.50;;
4595;SDS011;2310;49.978;8.742;2023-02-05T00:12:37;13.30;;;7.60;;
4595;SDS011;2310;49.978;8.742;2023-02-05T00:16:38;11.63;;;7.90;;
4595;SDS011;2310;49.978;8.742;2023-02-05T00:20:39;10.60;;;8.67;;
4595;SDS011;2310;49.978;8.742;2023-02-05T00:24:41;13.37;;;7.93;;
4595;SDS011;2310;49.978;8.742;2023-02-05T00:28:43;10.27;;;8.00;;
4595;SDS011;2310;49.978;8.742;2023-02-05T00:32:46;13.27;;;7.53;;
4595;SDS011;2310;49.978;8.742;2023-02-05T00:36:48;9.43;;;6.30;;
4595;SDS011;2310;49.978;8.742;2023-02-05T00:40:49;8.93;;;7.80;;
4595;SDS011;2310;49.978;8.742;2023-02-05T00:44:51;11.60;;;7.60;;
4595;SDS011;2310;49.978;8.742;2023-02-05T00:48:52;10.53;;;6.87;;
4595;SDS011;2310;49.978;8.742;2023-02-05T00:52:54;9.93;;;7.80;;
4595;SDS011;2310;49.978;8.742;2023-02-05T00:56:55;11.73;;;6.73;;
4595;SDS011;2310;49.978;8.742;2023-02-05T01:00:56;8.10;;;6.73;;
4595;SDS011;2310;49.978;8.742;2023-02-05T01:04:58;11.23;;;7.00;;
4595;SDS011;2310;49.978;8.742;2023-02-05T01:08:59;12.03;;;7.30;;
4595;SDS011;2310;49.978;8.742;2023-02-05T01:13:00;10.30;;;7.30;;
4595;SDS011;2310;49.978;8.742;2023-02-05T01:17:01;11.87;;;9.07;;
4595;SDS011;2310;49.978;8.742;2023-02-05T01:21:03;9.37;;;7.60;;
4595;SDS011;2310;49.978;8.742;2023-02-05T01:25:04;10.10;;;7.97;;
4595;SDS011;2310;49.978;8.742;2023-02-05T01:29:06;13.03;;;8.07;;
4595;SDS011;2310;49.978;8.742;2023-02-05T01:33:07;10.93;;;6.93;;
4595;SDS011;2310;49.978;8.742;2023-02-05T01:37:09;10.83;;;7.97;;
4595;SDS011;2310;49.978;8.742;2023-02-05T01:41:11;9.10;;;7.10;;
4595;SDS011;2310;49.978;8.742;2023-02-05T01:45:30;9.53;;;7.80;;
4595;SDS011;2310;49.978;8.742;2023-02-05T01:49:34;12.53;;;7.13;;
4595;SDS011;2310;49.978;8.742;2023-02-05T01:53:41;9.83;;;7.50;;
4595;SDS011;2310;49.978;8.742;2023-02-05T01:57:44;10.40;;;6.90;;
4595;SDS011;2310;49.978;8.742;2023-02-05T02:01:46;7.77;;;6.97;;
4595;SDS011;2310;49.978;8.742;2023-02-05T02:05:48;9.67;;;7.43;;
4595;SDS011;2310;49.978;8.742;2023-02-05T02:09:49;7.73;;;6.80;;
4595;SDS011;2310;49.978;8.742;2023-02-05T02:13:54;10.80;;;7.33;;
4595;SDS011;2310;49.978;8.742;2023-02-05T02:17:59;12.33;;;6.87;;
4595;SDS011;2310;49.978;8.742;2023-02-05T02:26:41;12.20;;;7.57;;
4595;SDS011;2310;49.978;8.742;2023-02-05T02:30:55;8.70;;;7.70;;
4595;SDS011;2310;49.978;8.742;2023-02-05T02:39:35;7.40;;;6.63;;
4595;SDS011;2310;49.978;8.742;2023-02-05T02:43:47;10.03;;;7.20;;
4595;SDS011;2310;49.978;8.742;2023-02-05T02:47:52;9.80;;;7.07;;
4595;SDS011;2310;49.978;8.742;2023-02-05T02:51:57;10.07;;;7.70;;
4595;SDS011;2310;49.978;8.742;2023-02-05T02:56:01;9.30;;;7.40;;
4595;SDS011;2310;49.978;8.742;2023-02-05T03:00:05;12.80;;;7.83;;
4595;SDS011;2310;49.978;8.742;2023-02-05T03:05:14;9.40;;;7.60;;
4595;SDS011;2310;49.978;8.742;2023-02-05T03:08:35;10.17;;;7.30;;
4595;SDS011;2310;49.978;8.742;2023-02-05T03:12:35;10.37;;;7.83;;
4595;SDS011;2310;49.978;8.742;2023-02-05T03:16:36;9.70;;;7.73;;
4595;SDS011;2310;49.978;8.742;2023-02-05T03:20:45;8.33;;;7.03;;
4595;SDS011;2310;49.978;8.742;2023-02-05T03:24:51;8.03;;;6.63;;
4595;SDS011;2310;49.978;8.742;2023-02-05T03:28:53;9.33;;;7.67;;
4595;SDS011;2310;49.978;8.742;2023-02-05T03:33:00;8.77;;;6.87;;
4595;SDS011;2310;49.978;8.742;2023-02-05T03:49:56;11.00;;;6.10;;
4595;SDS011;2310;49.978;8.742;2023-02-05T03:58:18;8.60;;;6.67;;
4595;SDS011;2310;49.978;8.742;2023-02-05T04:02:28;7.10;;;5.73;;
4595;SDS011;2310;49.978;8.742;2023-02-05T04:06:29;8.10;;;6.37;;
4595;SDS011;2310;49.978;8.742;2023-02-05T04:10:31;8.10;;;6.13;;
4595;SDS011;2310;49.978;8.742;2023-02-05T04:14:32;7.27;;;5.80;;
4595;SDS011;2310;49.978;8.742;2023-02-05T04:18:33;8.07;;;6.10;;
4595;SDS011;2310;49.978;8.742;2023-02-05T04:22:34;6.90;;;5.80;;
4595;SDS011;2310;49.978;8.742;2023-02-05T04:26:35;9.07;;;6.40;;
4595;SDS011;2310;49.978;8.742;2023-02-05T04:30:37;7.67;;;6.03;;
4595;SDS011;2310;49.978;8.742;2023-02-05T04:34:39;7.10;;;5.57;;
4595;SDS011;2310;49.978;8.742;2023-02-05T04:38:40;6.97;;;6.00;;
4595;SDS011;2310;49.978;8.742;2023-02-05T04:42:41;9.10;;;6.13;;
4595;SDS011;2310;49.978;8.742;2023-02-05T04:46:43;18.93;;;9.77;;
4595;SDS011;2310;49.978;8.742;2023-02-05T04:50:44;17.53;;;12.23;;
4595;SDS011;2310;49.978;8.742;2023-02-05T04:54:45;7.90;;;6.20;;
4595;SDS011;2310;49.978;8.742;2023-02-05T04:58:46;9.40;;;6.70;;
4595;SDS011;2310;49.978;8.742;2023-02-05T05:02:47;8.50;;;6.60;;
4595;SDS011;2310;49.978;8.742;2023-02-05T05:06:48;9.63;;;5.90;;
4595;SDS011;2310;49.978;8.742;2023-02-05T05:10:50;8.10;;;5.93;;
4595;SDS011;2310;49.978;8.742;2023-02-05T05:14:51;9.33;;;5.63;;
4595;SDS011;2310;49.978;8.742;2023-02-05T05:18:52;6.37;;;5.63;;
4595;SDS011;2310;49.978;8.742;2023-02-05T05:22:53;8.03;;;6.37;;
4595;SDS011;2310;49.978;8.742;2023-02-05T05:26:54;9.20;;;6.10;;
4595;SDS011;2310;49.978;8.742;2023-02-05T05:30:55;6.60;;;5.93;;
4595;SDS011;2310;49.978;8.742;2023-02-05T05:34:57;8.00;;;5.00;;
4595;SDS011;2310;49.978;8.742;2023-02-05T05:38:58;7.30;;;6.17;;
4595;SDS011;2310;49.978;8.742;2023-02-05T05:43:01;7.30;;;5.90;;
4595;SDS011;2310;49.978;8.742;2023-02-05T05:51:07;7.90;;;5.67;;
4595;SDS011;2310;49.978;8.742;2023-02-05T05:55:09;8.40;;;5.93;;
4595;SDS011;2310;49.978;8.742;2023-02-05T05:59:10;7.60;;;5.80;;
4595;SDS011;2310;49.978;8.742;2023-02-05T06:03:12;8.17;;;5.63;;
4595;SDS011;2310;49.978;8.742;2023-02-05T06:07:13;7.80;;;6.03;;
4595;SDS011;2310;49.978;8.742;2023-02-05T06:11:15;8.13;;;6.67;;
4595;SDS011;2310;49.978;8.742;2023-02-05T06:15:16;9.33;;;6.90;;
4595;SDS011;2310;49.978;8.742;2023-02-05T06:19:18;10.60;;;8.23;;
4595;SDS011;2310;49.978;8.742;2023-02-05T06:23:19;10.23;;;7.70;;
4595;SDS011;2310;49.978;8.742;2023-02-05T06:27:20;9.43;;;6.60;;
4595;SDS011;2310;49.978;8.742;2023-02-05T06:31:22;9.50;;;7.10;;
4595;SDS011;2310;49.978;8.742;2023-02-05T06:35:24;11.83;;;6.53;;
4595;SDS011;2310;49.978;8.742;2023-02-05T06:39:25;8.13;;;6.00;;
4595;SDS011;2310;49.978;8.742;2023-02-05T06:43:26;9.57;;;6.50;;
4595;SDS011;2310;49.978;8.742;2023-02-05T06:47:27;9.47;;;6.23;;
4595;SDS011;2310;49.978;8.742;2023-02-05T06:51:29;10.20;;;6.67;;
4595;SDS011;2310;49.978;8.742;2023-02-05T06:55:30;10.00;;;6.27;;
4595;SDS011;2310;49.978;8.742;2023-02-05T06:59:31;8.47;;;6.60;;
4595;SDS011;2310;49.978;8.742;2023-02-05T07:03:32;10.30;;;7.30;;
4595;SDS011;2310;49.978;8.742;2023-02-05T07:07:33;12.07;;;10.20;;
4595;SDS011;2310;49.978;8.742;2023-02-05T07:11:35;7.97;;;7.07;;
4595;SDS011;2310;49.978;8.742;2023-02-05T07:15:36;9.90;;;8.07;;
4595;SDS011;2310;49.978;8.742;2023-02-05T07:19:38;12.20;;;8.50;;
4595;SDS011;2310;49.978;8.742;2023-02-05T07:23:39;12.20;;;8.93;;
4595;SDS011;2310;49.978;8.742;2023-02-05T07:27:40;10.30;;;8.80;;
4595;SDS011;2310;49.978;8.742;2023-02-05T07:31:41;11.53;;;10.33;;
4595;SDS011;2310;49.978;8.742;2023-02-05T07:35:43;12.30;;;10.37;;
4595;SDS011;2310;49.978;8.742;2023-02-05T07:39:44;11.17;;;8.93;;
4595;SDS011;2310;49.978;8.742;2023-02-05T07:43:48;14.47;;;9.97;;
4595;SDS011;2310;49.978;8.742;2023-02-05T07:47:52;10.20;;;8.77;;
4595;SDS011;2310;49.978;8.742;2023-02-05T07:51:53;9.53;;;7.93;;
4595;SDS011;2310;49.978;8.742;2023-02-05T07:55:55;14.77;;;7.60;;
4595;SDS011;2310;49.978;8.742;2023-02-05T07:59:56;12.87;;;8.07;;
4595;SDS011;2310;49.978;8.742;2023-02-05T08:03:57;8.77;;;7.87;;
4595;SDS011;2310;49.978;8.742;2023-02-05T08:07:58;10.47;;;8.60;;
4595;SDS011;2310;49.978;8.742;2023-02-05T08:12:00;10.67;;;8.80;;
4595;SDS011;2310;49.978;8.742;2023-02-05T08:16:04;10.80;;;8.23;;
4595;SDS011;2310;49.978;8.742;2023-02-05T08:20:06;12.50;;;8.17;;
4595;SDS011;2310;49.978;8.742;2023-02-05T08:24:08;18.63;;;9.97;;
4595;SDS011;2310;49.978;8.742;2023-02-05T08:28:10;9.40;;;8.10;;
4595;SDS011;2310;49.978;8.742;2023-02-05T08:32:11;11.90;;;9.47;;
4595;SDS011;2310;49.978;8.742;2023-02-05T08:36:12;12.90;;;9.67;;
4595;SDS011;2310;49.978;8.742;2023-02-05T08:40:13;12.60;;;9.00;;
4595;SDS011;2310;49.978;8.742;2023-02-05T08:44:15;14.40;;;9.50;;
4595;SDS011;2310;49.978;8.742;2023-02-05T08:48:16;14.83;;;9.27;;
4595;SDS011;2310;49.978;8.742;2023-02-05T08:52:17;10.47;;;8.40;;
4595;SDS011;2310;49.978;8.742;2023-02-05T08:56:18;15.87;;;14.37;;
4595;SDS011;2310;49.978;8.742;2023-02-05T09:00:21;16.77;;;14.33;;
4595;SDS011;2310;49.978;8.742;2023-02-05T09:04:22;21.87;;;17.87;;
4595;SDS011;2310;49.978;8.742;2023-02-05T09:08:24;12.63;;;11.30;;
4595;SDS011;2310;49.978;8.742;2023-02-05T09:12:26;16.33;;;14.63;;
4595;SDS011;2310;49.978;8.742;2023-02-05T09:16:28;15.27;;;12.97;;
4595;SDS011;2310;49.978;8.742;2023-02-05T09:20:29;13.50;;;11.40;;
4595;SDS011;2310;49.978;8.742;2023-02-05T09:24:30;16.30;;;11.77;;
4595;SDS011;2310;49.978;8.742;2023-02-05T09:28:31;14.70;;;11.47;;
4595;SDS011;2310;49.978;8.742;2023-02-05T09:32:32;16.17;;;13.90;;
4595;SDS011;2310;49.978;8.742;2023-02-05T09:36:34;13.70;;;12.20;;
4595;SDS011;2310;49.978;8.742;2023-02-05T09:40:39;13.27;;;11.87;;
4595;SDS011;2310;49.978;8.742;2023-02-05T09:44:56;13.63;;;11.70;;
4595;SDS011;2310;49.978;8.742;2023-02-05T09:49:27;14.70;;;11.10;;
4595;SDS011;2310;49.978;8.742;2023-02-05T09:53:32;18.67;;;15.30;;
4595;SDS011;2310;49.978;8.742;2023-02-05T09:57:37;16.37;;;13.77;;
4595;SDS011;2310;49.978;8.742;2023-02-05T10:10:25;20.40;;;16.90;;
4595;SDS011;2310;49.978;8.742;2023-02-05T10:23:27;18.43;;;16.57;;
4595;SDS011;2310;49.978;8.742;2023-02-05T10:27:45;19.13;;;17.20;;
4595;SDS011;2310;49.978;8.742;2023-02-05T10:36:13;18.80;;;16.87;;
4595;SDS011;2310;49.978;8.742;2023-02-05T10:40:17;20.00;;;17.37;;
4595;SDS011;2310;49.978;8.742;2023-02-05T10:44:30;17.27;;;14.77;;
4595;SDS011;2310;49.978;8.742;2023-02-05T10:48:45;24.70;;;18.10;;
4595;SDS011;2310;49.978;8.742;2023-02-05T10:52:48;18.17;;;16.17;;
4595;SDS011;2310;49.978;8.742;2023-02-05T10:56:49;19.83;;;15.97;;
4595;SDS011;2310;49.978;8.742;2023-02-05T11:00:51;17.70;;;15.80;;
4595;SDS011;2310;49.978;8.742;2023-02-05T11:04:57;20.37;;;16.10;;
4595;SDS011;2310;49.978;8.742;2023-02-05T11:09:04;19.27;;;15.43;;
4595;SDS011;2310;49.978;8.742;2023-02-05T11:13:17;20.47;;;17.40;;
4595;SDS011;2310;49.978;8.742;2023-02-05T11:17:22;19.20;;;16.47;;
4595;SDS011;2310;49.978;8.742;2023-02-05T11:25:56;26.00;;;22.73;;
4595;SDS011;2310;49.978;8.742;2023-02-05T11:34:22;24.70;;;19.77;;
4595;SDS011;2310;49.978;8.742;2023-02-05T11:42:31;19.53;;;16.93;;
4595;SDS011;2310;49.978;8.742;2023-02-05T11:46:33;20.17;;;16.13;;
4595;SDS011;2310;49.978;8.742;2023-02-05T11:50:38;18.23;;;15.87;;
4595;SDS011;2310;49.978;8.742;2023-02-05T11:54:43;17.20;;;14.30;;
4595;SDS011;2310;49.978;8.742;2023-02-05T11:59:04;20.03;;;16.53;;
4595;SDS011;2310;49.978;8.742;2023-02-05T12:03:18;21.87;;;19.67;;
4595;SDS011;2310;49.978;8.742;2023-02-05T12:07:17;16.53;;;14.57;;
4595;SDS011;2310;49.978;8.742;2023-02-05T12:16:04;17.37;;;13.93;;
4595;SDS011;2310;49.978;8.742;2023-02-05T12:20:26;15.60;;;14.03;;
4595;SDS011;2310;49.978;8.742;2023-02-05T12:24:51;16.67;;;13.50;;
4595;SDS011;2310;49.978;8.742;2023-02-05T12:33:39;15.87;;;12.83;;
4595;SDS011;2310;49.978;8.742;2023-02-05T12:42:32;16.00;;;14.30;;
4595;SDS011;2310;49.978;8.742;2023-02-05T12:46:53;15.20;;;13.60;;
4595;SDS011;2310;49.978;8.742;2023-02-05T12:55:21;20.13;;;17.80;;
4595;SDS011;2310;49.978;8.742;2023-02-05T13:11:57;12.47;;;11.17;;
4595;SDS011;2310;49.978;8.742;2023-02-05T13:16:03;12.93;;;11.60;;
4595;SDS011;2310;49.978;8.742;2023-02-05T13:20:06;12.97;;;11.53;;
4595;SDS011;2310;49.978;8.742;2023-02-05T13:32:59;12.17;;;9.43;;
4595;SDS011;2310;49.978;8.742;2023-02-05T13:37:07;21.37;;;18.80;;
4595;SDS011;2310;49.978;8.742;2023-02-05T13:41:16;17.33;;;15.13;;
4595;SDS011;2310;49.978;8.742;2023-02-05T13:45:28;9.30;;;8.30;;
4595;SDS011;2310;49.978;8.742;2023-02-05T13:49:58;13.40;;;10.93;;
4595;SDS011;2310;49.978;8.742;2023-02-05T13:58:26;10.00;;;8.20;;
4595;SDS011;2310;49.978;8.742;2023-02-05T14:02:31;11.50;;;10.30;;
4595;SDS011;2310;49.978;8.742;2023-02-05T14:06:36;10.20;;;9.10;;
4595;SDS011;2310;49.978;8.742;2023-02-05T14:10:39;10.07;;;7.93;;
4595;SDS011;2310;49.978;8.742;2023-02-05T14:14:44;9.47;;;8.47;;
4595;SDS011;2310;49.978;8.742;2023-02-05T14:31:45;14.57;;;11.77;;
4595;SDS011;2310;49.978;8.742;2023-02-05T14:35:48;14.77;;;10.93;;
4595;SDS011;2310;49.978;8.742;2023-02-05T14:39:52;12.83;;;11.03;;
4595;SDS011;2310;49.978;8.742;2023-02-05T14:44:03;11.90;;;9.67;;
4595;SDS011;2310;49.978;8.742;2023-02-05T14:48:14;11.73;;;10.53;;
4595;SDS011;2310;49.978;8.742;2023-02-05T14:52:23;14.50;;;11.27;;
4595;SDS011;2310;49.978;8.742;2023-02-05T14:56:51;12.67;;;11.03;;
4595;SDS011;2310;49.978;8.742;2023-02-05T15:00:40;13.90;;;12.50;;
4595;SDS011;2310;49.978;8.742;2023-02-05T15:08:54;13.80;;;12.30;;
4595;SDS011;2310;49.978;8.742;2023-02-05T15:13:00;15.27;;;13.63;;
4595;SDS011;2310;49.978;8.742;2023-02-05T15:21:15;15.53;;;13.70;;
4595;SDS011;2310;49.978;8.742;2023-02-05T15:25:36;14.97;;;13.03;;
4595;SDS011;2310;49.978;8.742;2023-02-05T15:29:46;14.50;;;12.07;;
4595;SDS011;2310;49.978;8.742;2023-02-05T15:34:01;14.73;;;12.70;;
4595;SDS011;2310;49.978;8.742;2023-02-05T15:42:29;15.17;;;13.10;;
4595;SDS011;2310;49.978;8.742;2023-02-05T15:46:35;14.50;;;12.33;;
4595;SDS011;2310;49.978;8.742;2023-02-05T15:54:52;18.10;;;14.90;;
4595;SDS011;2310;49.978;8.742;2023-02-05T15:58:59;18.50;;;14.10;;
4595;SDS011;2310;49.978;8.742;2023-02-05T16:03:04;16.10;;;13.60;;
4595;SDS011;2310;49.978;8.742;2023-02-05T16:07:17;17.13;;;14.20;;
4595;SDS011;2310;49.978;8.742;2023-02-05T16:11:25;17.37;;;15.20;;
4595;SDS011;2310;49.978;8.742;2023-02-05T16:15:35;17.37;;;14.47;;
4595;SDS011;2310;49.978;8.742;2023-02-05T16:19:44;17.67;;;14.07;;
4595;SDS011;2310;49.978;8.742;2023-02-05T16:23:59;19.00;;;15.37;;
4595;SDS011;2310;49.978;8.742;2023-02-05T16:27:59;20.93;;;15.50;;
4595;SDS011;2310;49.978;8.742;2023-02-05T16:32:09;19.17;;;15.90;;
4595;SDS011;2310;49.978;8.742;2023-02-05T16:36:21;22.00;;;16.67;;
4595;SDS011;2310;49.978;8.742;2023-02-05T16:44:38;18.93;;;15.33;;
4595;SDS011;2310;49.978;8.742;2023-02-05T16:52:54;15.73;;;14.00;;
4595;SDS011;2310;49.978;8.742;2023-02-05T16:57:13;16.87;;;14.40;;
4595;SDS011;2310;49.978;8.742;2023-02-05T17:01:22;17.03;;;14.50;;
4595;SDS011;2310;49.978;8.742;2023-02-05T17:05:30;19.23;;;15.70;;
4595;SDS011;2310;49.978;8.742;2023-02-05T17:09:34;17.67;;;14.40;;
4595;SDS011;2310;49.978;8.742;2023-02-05T17:13:38;19.50;;;16.63;;
4595;SDS011;2310;49.978;8.742;2023-02-05T17:17:49;23.80;;;18.83;;
4595;SDS011;2310;49.978;8.742;2023-02-05T17:26:17;22.90;;;18.80;;
4595;SDS011;2310;49.978;8.742;2023-02-05T17:30:19;25.53;;;20.63;;
4595;SDS011;2310;49.978;8.742;2023-02-05T17:34:21;20.70;;;18.33;;
4595;SDS011;2310;49.978;8.742;2023-02-05T17:38:22;28.67;;;23.20;;
4595;SDS011;2310;49.978;8.742;2023-02-05T17:42:24;19.20;;;15.97;;
4595;SDS011;2310;49.978;8.742;2023-02-05T17:46:26;19.80;;;16.60;;
4595;SDS011;2310;49.978;8.742;2023-02-05T17:50:27;15.87;;;13.27;;
4595;SDS011;2310;49.978;8.742;2023-02-05T17:54:28;18.60;;;15.33;;
4595;SDS011;2310;49.978;8.742;2023-02-05T17:58:30;16.00;;;13.97;;
4595;SDS011;2310;49.978;8.742;2023-02-05T18:02:32;17.20;;;13.90;;
4595;SDS011;2310;49.978;8.742;2023-02-05T18:06:33;19.30;;;15.63;;
4595;SDS011;2310;49.978;8.742;2023-02-05T18:10:36;23.03;;;17.67;;
4595;SDS011;2310;49.978;8.742;2023-02-05T18:14:38;22.20;;;17.47;;
4595;SDS011;2310;49.978;8.742;2023-02-05T18:18:39;19.33;;;16.10;;
4595;SDS011;2310;49.978;8.742;2023-02-05T18:22:40;21.10;;;18.17;;
4595;SDS011;2310;49.978;8.742;2023-02-05T18:26:41;20.43;;;17.10;;
4595;SDS011;2310;49.978;8.742;2023-02-05T18:30:43;21.40;;;17.70;;
4595;SDS011;2310;49.978;8.742;2023-02-05T18:34:44;18.20;;;15.30;;
4595;SDS011;2310;49.978;8.742;2023-02-05T18:38:46;21.80;;;17.50;;
4595;SDS011;2310;49.978;8.742;2023-02-05T18:42:47;19.33;;;16.77;;
4595;SDS011;2310;49.978;8.742;2023-02-05T18:46:50;20.07;;;16.93;;
4595;SDS011;2310;49.978;8.742;2023-02-05T18:50:51;17.70;;;14.80;;
4595;SDS011;2310;49.978;8.742;2023-02-05T18:54:52;19.80;;;16.30;;
4595;SDS011;2310;49.978;8.742;2023-02-05T18:58:55;22.50;;;20.13;;
4595;SDS011;2310;49.978;8.742;2023-02-05T19:02:59;19.53;;;17.43;;
4595;SDS011;2310;49.978;8.742;2023-02-05T19:07:06;19.13;;;15.70;;
4595;SDS011;2310;49.978;8.742;2023-02-05T19:11:17;25.43;;;19.10;;
4595;SDS011;2310;49.978;8.742;2023-02-05T19:15:16;24.50;;;17.50;;
4595;SDS011;2310;49.978;8.742;2023-02-05T19:19:18;17.47;;;15.47;;
4595;SDS011;2310;49.978;8.742;2023-02-05T19:23:21;17.10;;;14.43;;
4595;SDS011;2310;49.978;8.742;2023-02-05T19:27:22;15.23;;;13.10;;
4595;SDS011;2310;49.978;8.742;2023-02-05T19:31:25;15.27;;;12.57;;
4595;SDS011;2310;49.978;8.742;2023-02-05T19:35:27;14.93;;;13.07;;
4595;SDS011;2310;49.978;8.742;2023-02-05T19:39:28;16.40;;;12.77;;
4595;SDS011;2310;49.978;8.742;2023-02-05T19:43:30;15.20;;;13.13;;
4595;SDS011;2310;49.978;8.742;2023-02-05T19:47:31;16.07;;;13.30;;
4595;SDS011;2310;49.978;8.742;2023-02-05T19:51:32;15.53;;;13.93;;
4595;SDS011;2310;49.978;8.742;2023-02-05T19:55:34;17.27;;;13.70;;
4595;SDS011;2310;49.978;8.742;2023-02-05T19:59:36;16.10;;;12.97;;
4595;SDS011;2310;49.978;8.742;2023-02-05T20:03:37;13.80;;;11.40;;
4595;SDS011;2310;49.978;8.742;2023-02-05T20:07:38;15.53;;;11.97;;
4595;SDS011;2310;49.978;8.742;2023-02-05T20:11:40;13.17;;;10.90;;
4595;SDS011;2310;49.978;8.742;2023-02-05T20:15:43;14.77;;;12.20;;
4595;SDS011;2310;49.978;8.742;2023-02-05T20:19:45;14.30;;;12.50;;
4595;SDS011;2310;49.978;8.742;2023-02-05T20:23:46;12.60;;;11.30;;
4595;SDS011;2310;49.978;8.742;2023-02-05T20:27:48;12.30;;;10.70;;
4595;SDS011;2310;49.978;8.742;2023-02-05T20:31:50;15.37;;;12.50;;
4595;SDS011;2310;49.978;8.742;2023-02-05T20:35:56;14.30;;;11.93;;
4595;SDS011;2310;49.978;8.742;2023-02-05T20:40:01;13.70;;;11.23;;
4595;SDS011;2310;49.978;8.742;2023-02-05T20:44:04;15.40;;;13.57;;
4595;SDS011;2310;49.978;8.742;2023-02-05T20:48:07;13.37;;;11.93;;
4595;SDS011;2310;49.978;8.742;2023-02-05T20:52:08;14.97;;;13.17;;
4595;SDS011;2310;49.978;8.742;2023-02-05T20:56:12;23.33;;;19.07;;
4595;SDS011;2310;49.978;8.742;2023-02-05T21:00:22;24.80;;;21.03;;
4595;SDS011;2310;49.978;8.742;2023-02-05T21:04:27;19.10;;;17.07;;
4595;SDS011;2310;49.978;8.742;2023-02-05T21:08:32;18.27;;;16.37;;
4595;SDS011;2310;49.978;8.742;2023-02-05T21:12:34;18.03;;;16.17;;
4595;SDS011;2310;49.978;8.742;2023-02-05T21:16:36;18.00;;;16.13;;
4595;SDS011;2310;49.978;8.742;2023-02-05T21:20:38;18.10;;;14.30;;
4595;SDS011;2310;49.978;8.742;2023-02-05T21:24:39;18.07;;;15.30;;
4595;SDS011;2310;49.978;8.742;2023-02-05T21:28:41;16.60;;;13.27;;
4595;SDS011;2310;49.978;8.742;2023-02-05T21:32:42;16.23;;;14.43;;
4595;SDS011;2310;49.978;8.742;2023-02-05T21:36:46;16.53;;;13.53;;
4595;SDS011;2310;49.978;8.742;2023-02-05T21:40:48;15.03;;;13.33;;
4595;SDS011;2310;49.978;8.742;2023-02-05T21:44:51;17.63;;;13.30;;
4595;SDS011;2310;49.978;8.742;2023-02-05T21:48:55;19.20;;;15.50;;
4595;SDS011;2310;49.978;8.742;2023-02-05T21:52:57;16.63;;;14.47;;
4595;SDS011;2310;49.978;8.742;2023-02-05T21:56:58;18.30;;;16.37;;
4595;SDS011;2310;49.978;8.742;2023-02-05T22:01:34;19.73;;;15.40;;
4595;SDS011;2310;49.978;8.742;2023-02-05T22:05:12;17.70;;;13.50;;
4595;SDS011;2310;49.978;8.742;2023-02-05T22:09:14;15.80;;;14.13;;
4595;SDS011;2310;49.978;8.742;2023-02-05T22:13:16;18.30;;;13.50;;
4595;SDS011;2310;49.978;8.742;2023-02-05T22:17:17;14.67;;;13.10;;
4595;SDS011;2310;49.978;8.742;2023-02-05T22:21:24;19.33;;;14.40;;
4595;SDS011;2310;49.978;8.742;2023-02-05T22:25:26;17.77;;;14.07;;
4595;SDS011;2310;49.978;8.742;2023-02-05T22:29:27;17.40;;;14.40;;
4595;SDS011;2310;49.978;8.742;2023-02-05T22:33:29;18.63;;;15.73;;
4595;SDS011;2310;49.978;8.742;2023-02-05T22:37:31;17.27;;;15.47;;
4595;SDS011;2310;49.978;8.742;2023-02-05T22:41:34;19.40;;;16.57;;
4595;SDS011;2310;49.978;8.742;2023-02-05T22:45:37;21.03;;;15.03;;
4595;SDS011;2310;49.978;8.742;2023-02-05T22:49:39;16.87;;;15.00;;
4595;SDS011;2310;49.978;8.742;2023-02-05T22:53:40;17.90;;;15.20;;
4595;SDS011;2310;49.978;8.742;2023-02-05T22:57:41;18.60;;;16.60;;
4595;SDS011;2310;49.978;8.742;2023-02-05T23:01:43;17.60;;;15.17;;
4595;SDS011;2310;49.978;8.742;2023-02-05T23:05:44;19.67;;;16.77;;
4595;SDS011;2310;49.978;8.742;2023-02-05T23:09:45;18.73;;;14.43;;
4595;SDS011;2310;49.978;8.742;2023-02-05T23:13:49;18.10;;;14.17;;
4595;SDS011;2310;49.978;8.742;2023-02-05T23:17:50;16.00;;;13.83;;
4595;SDS011;2310;49.978;8.742;2023-02-05T23:21:51;17.40;;;15.50;;
4595;SDS011;2310;49.978;8.742;2023-02-05T23:25:52;17.20;;;14.13;;
4595;SDS011;2310;49.978;8.742;2023-02-05T23:29:54;16.20;;;14.07;;
4595;SDS011;2310;49.978;8.742;2023-02-05T23:33:56;16.93;;;14.47;;
4595;SDS011;2310;49.978;8.742;2023-02-05T23:37:57;16.50;;;13.60;;
4595;SDS011;2310;49.978;8.742;2023-02-05T23:41:58;15.93;;;13.43;;
4595;SDS011;2310;49.978;8.742;2023-02-05T23:45:59;16.03;;;14.17;;
4595;SDS011;2310;49.978;8.742;2023-02-05T23:50:07;17.60;;;14.53;;
4595;SDS011;2310;49.978;8.742;2023-02-05T23:54:10;16.13;;;13.70;;
4595;SDS011;2310;49.978;8.742;2023-02-05T23:58:12;13.90;;;11.97;;
